createdAt,value
2023-01-19T00:00:51.517Z,11.52
2023-01-19T00:03:18.546Z,10.77
2023-01-19T00:05:45.712Z,11.55
2023-01-19T00:08:17.056Z,10.18
2023-01-19T00:10:46.216Z,9.57
2023-01-19T00:13:13.912Z,9.88
2023-01-19T00:15:40.870Z,10.95
2023-01-19T00:18:09.685Z,10.15
2023-01-19T00:20:37.927Z,9.70
2023-01-19T00:23:05.175Z,9.07
2023-01-19T00:25:31.953Z,9.38
2023-01-19T00:28:01.440Z,8.57
2023-01-19T00:30:28.821Z,10.77
2023-01-19T00:32:55.989Z,9.27
2023-01-19T00:35:22.752Z,9.50
2023-01-19T00:37:49.460Z,9.98
2023-01-19T00:40:16.609Z,9.88
2023-01-19T00:42:48.358Z,10.18
2023-01-19T00:45:23.554Z,9.13
2023-01-19T00:47:54.756Z,9.48
2023-01-19T00:50:21.560Z,9.23
2023-01-19T00:52:48.231Z,8.55
2023-01-19T00:55:16.517Z,10.52
2023-01-19T00:57:43.400Z,10.13
2023-01-19T01:00:12.908Z,10.48
2023-01-19T01:02:41.168Z,9.65
2023-01-19T01:05:09.096Z,8.30
2023-01-19T01:07:40.878Z,9.70
2023-01-19T01:10:09.884Z,9.25
2023-01-19T01:12:37.502Z,9.65
2023-01-19T01:15:07.008Z,8.75
2023-01-19T01:17:34.127Z,9.20
2023-01-19T01:20:00.902Z,8.38
2023-01-19T01:22:27.740Z,8.48
2023-01-19T01:24:54.584Z,8.88
2023-01-19T01:27:21.351Z,9.13
2023-01-19T01:29:48.582Z,8.55
2023-01-19T01:32:16.766Z,7.85
2023-01-19T01:34:43.909Z,8.50
2023-01-19T01:37:10.699Z,9.43
2023-01-19T01:39:37.720Z,7.75
2023-01-19T01:42:17.851Z,9.52
2023-01-19T01:44:51.484Z,7.70
2023-01-19T01:47:23.994Z,9.20
2023-01-19T01:49:57.197Z,8.02
2023-01-19T01:52:26.988Z,8.23
2023-01-19T01:54:53.878Z,8.60
2023-01-19T01:57:20.809Z,8.57
2023-01-19T01:59:49.571Z,8.43
2023-01-19T02:02:40.372Z,9.10
2023-01-19T02:05:11.538Z,8.05
2023-01-19T02:08:12.516Z,9.98
2023-01-19T02:10:59.549Z,8.52
2023-01-19T02:13:28.569Z,8.93
2023-01-19T02:16:01.072Z,7.32
2023-01-19T02:18:29.812Z,8.20
2023-01-19T02:21:02.668Z,9.32
2023-01-19T02:23:43.239Z,8.20
2023-01-19T02:26:13.686Z,8.95
2023-01-19T02:28:46.419Z,8.90
2023-01-19T02:31:15.120Z,8.65
2023-01-19T02:33:42.158Z,8.10
2023-01-19T02:36:12.003Z,9.38
2023-01-19T02:38:40.322Z,8.88
2023-01-19T02:41:08.928Z,8.00
2023-01-19T02:43:37.316Z,8.10
2023-01-19T02:46:04.277Z,8.18
2023-01-19T02:48:31.282Z,9.60
2023-01-19T02:51:04.472Z,8.52
2023-01-19T02:54:05.845Z,8.80
2023-01-19T02:56:38.251Z,8.60
2023-01-19T02:59:25.399Z,9.23
2023-01-19T03:01:58.303Z,8.40
2023-01-19T03:04:31.562Z,9.23
2023-01-19T03:07:10.191Z,9.23
2023-01-19T03:09:49.453Z,9.50
2023-01-19T03:12:40.269Z,9.82
2023-01-19T03:15:20.947Z,9.18
2023-01-19T03:17:50.654Z,9.07
2023-01-19T03:20:22.670Z,9.05
2023-01-19T03:22:55.396Z,8.07
2023-01-19T03:25:24.703Z,8.88
2023-01-19T03:27:54.737Z,10.05
2023-01-19T03:30:27.024Z,9.00
2023-01-19T03:33:00.460Z,8.68
2023-01-19T03:35:33.139Z,9.68
2023-01-19T03:38:04.006Z,9.73
2023-01-19T03:40:32.651Z,9.88
2023-01-19T03:43:01.360Z,9.05
2023-01-19T03:45:28.539Z,8.80
2023-01-19T03:47:55.510Z,10.15
2023-01-19T03:50:27.371Z,8.85
2023-01-19T03:53:21.871Z,9.50
2023-01-19T03:55:51.373Z,9.50
2023-01-19T03:58:18.088Z,10.13
2023-01-19T04:00:44.839Z,10.68
2023-01-19T04:03:14.671Z,9.68
2023-01-19T04:05:41.941Z,9.70
2023-01-19T04:08:09.953Z,11.00
2023-01-19T04:10:36.919Z,9.20
2023-01-19T04:13:04.693Z,9.50
2023-01-19T04:15:32.469Z,9.75
2023-01-19T04:18:00.259Z,9.82
2023-01-19T04:20:28.274Z,10.32
2023-01-19T04:22:59.952Z,9.80
2023-01-19T04:25:27.788Z,9.50
2023-01-19T04:27:55.233Z,10.05
2023-01-19T04:30:22.695Z,10.32
2023-01-19T04:32:49.853Z,9.52
2023-01-19T04:35:17.062Z,10.35
2023-01-19T04:37:45.024Z,8.32
2023-01-19T04:40:12.391Z,9.73
2023-01-19T04:42:42.803Z,10.38
2023-01-19T04:45:10.046Z,9.90
2023-01-19T04:47:37.221Z,9.88
2023-01-19T04:50:05.712Z,11.63
2023-01-19T04:52:36.333Z,10.27
2023-01-19T04:55:06.565Z,11.60
2023-01-19T04:57:33.305Z,11.27
2023-01-19T05:00:00.156Z,10.38
2023-01-19T05:02:27.359Z,11.15
2023-01-19T05:04:54.760Z,9.27
2023-01-19T05:07:21.437Z,11.30
2023-01-19T05:09:48.231Z,10.88
2023-01-19T05:12:15.067Z,11.40
2023-01-19T05:14:41.858Z,11.07
2023-01-19T05:17:08.783Z,8.82
2023-01-19T05:19:35.562Z,11.15
2023-01-19T05:22:03.821Z,11.48
2023-01-19T05:24:30.661Z,10.88
2023-01-19T05:26:57.850Z,10.73
2023-01-19T05:29:24.676Z,10.70
2023-01-19T05:31:51.548Z,9.35
2023-01-19T05:34:18.686Z,11.98
2023-01-19T05:36:45.397Z,11.80
2023-01-19T05:39:12.210Z,10.00
2023-01-19T05:41:38.936Z,10.73
2023-01-19T05:44:05.728Z,10.30
2023-01-19T05:46:33.989Z,11.02
2023-01-19T05:49:04.165Z,11.57
2023-01-19T05:51:35.203Z,10.65
2023-01-19T05:54:02.324Z,11.57
2023-01-19T05:56:29.364Z,11.05
2023-01-19T05:58:56.061Z,10.60
2023-01-19T06:01:23.037Z,11.07
2023-01-19T06:03:49.788Z,10.32
2023-01-19T06:06:17.217Z,10.30
2023-01-19T06:08:44.775Z,9.85
2023-01-19T06:11:12.465Z,10.75
2023-01-19T06:13:42.800Z,9.30
2023-01-19T06:16:09.937Z,9.25
2023-01-19T06:18:36.662Z,11.45
2023-01-19T06:21:05.641Z,9.45
2023-01-19T06:23:33.942Z,12.35
2023-01-19T06:26:01.093Z,10.45
2023-01-19T06:28:27.905Z,12.40
2023-01-19T06:30:56.185Z,12.05
2023-01-19T06:33:24.982Z,10.90
2023-01-19T06:35:52.238Z,11.40
2023-01-19T06:38:19.398Z,10.23
2023-01-19T06:40:52.639Z,11.18
2023-01-19T06:43:20.356Z,12.40
2023-01-19T06:45:47.497Z,10.10
2023-01-19T06:48:14.459Z,11.65
2023-01-19T06:50:41.569Z,10.40
2023-01-19T06:53:08.403Z,9.35
2023-01-19T06:55:36.496Z,10.55
2023-01-19T06:58:03.427Z,11.35
2023-01-19T07:00:30.336Z,11.35
2023-01-19T07:02:57.094Z,10.63
2023-01-19T07:05:24.482Z,9.35
2023-01-19T07:07:55.499Z,9.00
2023-01-19T07:10:23.617Z,10.48
2023-01-19T07:12:50.766Z,8.45
2023-01-19T07:15:19.839Z,10.75
2023-01-19T07:17:46.640Z,9.88
2023-01-19T07:20:14.531Z,8.95
2023-01-19T07:22:46.540Z,10.15
2023-01-19T07:25:14.522Z,11.77
2023-01-19T07:27:41.303Z,11.07
2023-01-19T07:30:09.132Z,10.52
2023-01-19T07:32:36.067Z,10.77
2023-01-19T07:35:03.245Z,10.27
2023-01-19T07:37:30.090Z,8.90
2023-01-19T07:39:56.890Z,10.75
2023-01-19T07:42:23.596Z,10.15
2023-01-19T07:44:50.342Z,10.82
2023-01-19T07:47:17.348Z,10.25
2023-01-19T07:49:44.144Z,9.55
2023-01-19T07:52:10.967Z,9.30
2023-01-19T07:54:38.368Z,9.95
2023-01-19T07:57:05.123Z,10.82
2023-01-19T07:59:32.396Z,11.60
2023-01-19T08:01:59.773Z,11.55
2023-01-19T08:04:28.010Z,10.93
2023-01-19T08:06:56.039Z,10.35
2023-01-19T08:09:24.025Z,11.55
2023-01-19T08:11:50.753Z,11.00
2023-01-19T08:14:17.761Z,10.30
2023-01-19T08:16:46.135Z,11.63
2023-01-19T08:19:12.834Z,10.88
2023-01-19T08:21:39.635Z,11.48
2023-01-19T08:24:06.799Z,11.10
2023-01-19T08:26:35.380Z,10.38
2023-01-19T08:29:04.924Z,11.07
2023-01-19T08:31:32.052Z,10.77
2023-01-19T08:33:59.243Z,10.32
2023-01-19T08:36:26.586Z,11.82
2023-01-19T08:38:53.285Z,10.73
2023-01-19T08:41:20.231Z,10.73
2023-01-19T08:43:47.158Z,10.45
2023-01-19T08:46:21.341Z,11.38
2023-01-19T08:48:48.705Z,10.68
2023-01-19T08:51:16.175Z,10.60
2023-01-19T08:53:43.393Z,10.90
2023-01-19T08:56:14.498Z,10.23
2023-01-19T08:58:43.101Z,11.25
2023-01-19T09:01:11.282Z,10.45
2023-01-19T09:03:38.112Z,9.80
2023-01-19T09:06:08.823Z,10.27
2023-01-19T09:08:35.852Z,10.50
2023-01-19T09:11:02.702Z,9.93
2023-01-19T09:13:29.519Z,9.45
2023-01-19T09:15:56.334Z,10.10
2023-01-19T09:18:24.144Z,12.88
2023-01-19T09:20:51.198Z,10.18
2023-01-19T09:23:20.423Z,10.77
2023-01-19T09:25:48.143Z,9.40
2023-01-19T09:28:17.628Z,9.65
2023-01-19T09:30:45.159Z,8.38
2023-01-19T09:33:17.268Z,9.93
2023-01-19T09:35:45.997Z,8.35
2023-01-19T09:38:15.284Z,8.02
2023-01-19T09:41:17.573Z,8.50
2023-01-19T09:43:58.021Z,7.00
2023-01-19T09:46:36.972Z,8.10
2023-01-19T09:49:11.619Z,8.65
2023-01-19T09:51:41.575Z,8.80
2023-01-19T09:54:20.724Z,8.40
2023-01-19T09:56:51.320Z,7.88
2023-01-19T09:59:20.882Z,7.45
2023-01-19T10:02:02.858Z,8.35
2023-01-19T10:04:31.833Z,7.00
2023-01-19T10:07:10.760Z,6.80
2023-01-19T10:10:01.064Z,5.57
2023-01-19T10:12:58.285Z,6.90
2023-01-19T10:16:01.827Z,6.05
2023-01-19T10:18:35.703Z,5.65
2023-01-19T10:21:13.108Z,5.80
2023-01-19T10:23:57.310Z,5.03
2023-01-19T10:26:39.358Z,5.82
2023-01-19T10:29:26.074Z,5.43
2023-01-19T10:32:04.237Z,6.80
2023-01-19T10:34:30.999Z,6.50
2023-01-19T10:37:04.753Z,6.63
2023-01-19T10:39:31.830Z,5.65
2023-01-19T10:42:03.849Z,6.40
2023-01-19T10:44:36.667Z,6.07
2023-01-19T10:47:06.243Z,5.70
2023-01-19T10:49:44.748Z,5.85
2023-01-19T10:52:26.602Z,5.53
2023-01-19T10:54:53.978Z,6.70
2023-01-19T10:57:32.981Z,5.68
2023-01-19T10:59:59.940Z,7.18
2023-01-19T11:02:29.370Z,6.80
2023-01-19T11:04:59.304Z,6.78
2023-01-19T11:07:25.968Z,6.47
2023-01-19T11:10:17.505Z,9.35
2023-01-19T11:13:01.782Z,7.25
2023-01-19T11:15:44.637Z,7.28
2023-01-19T11:18:33.989Z,7.90
2023-01-19T11:21:09.806Z,7.00
2023-01-19T11:23:51.527Z,7.53
2023-01-19T11:26:32.406Z,7.78
2023-01-19T11:29:00.971Z,8.10
2023-01-19T11:31:27.819Z,6.97
2023-01-19T11:34:00.039Z,6.85
2023-01-19T11:36:32.568Z,6.32
2023-01-19T11:39:02.600Z,7.10
2023-01-19T11:41:37.187Z,6.70
2023-01-19T11:44:19.406Z,5.88
2023-01-19T11:46:50.754Z,6.57
2023-01-19T11:49:44.232Z,5.68
2023-01-19T11:52:10.898Z,6.10
2023-01-19T11:54:47.492Z,4.97
2023-01-19T11:57:17.209Z,7.00
2023-01-19T11:59:44.775Z,5.28
2023-01-19T12:02:26.269Z,5.30
2023-01-19T12:04:57.937Z,5.40
2023-01-19T12:07:30.363Z,6.30
2023-01-19T12:10:13.205Z,5.88
2023-01-19T12:12:41.200Z,4.97
2023-01-19T12:15:36.199Z,5.07
2023-01-19T12:18:04.791Z,6.32
2023-01-19T12:20:35.184Z,4.90
2023-01-19T12:23:22.527Z,5.40
2023-01-19T12:26:16.436Z,5.53
2023-01-19T12:28:48.311Z,5.18
2023-01-19T12:31:17.930Z,5.13
2023-01-19T12:33:44.843Z,4.70
2023-01-19T12:36:26.632Z,4.70
2023-01-19T12:39:04.282Z,4.75
2023-01-19T12:41:34.319Z,5.45
2023-01-19T12:44:16.001Z,7.35
2023-01-19T12:46:50.189Z,5.28
2023-01-19T12:49:38.434Z,5.68
2023-01-19T12:52:20.363Z,5.45
2023-01-19T12:55:12.772Z,4.18
2023-01-19T12:57:46.645Z,4.68
2023-01-19T13:00:22.393Z,4.35
2023-01-19T13:02:51.568Z,5.15
2023-01-19T13:05:47.820Z,4.88
2023-01-19T13:08:16.167Z,4.80
2023-01-19T13:11:09.494Z,4.10
2023-01-19T13:14:05.373Z,4.70
2023-01-19T13:16:32.081Z,4.55
2023-01-19T13:19:06.236Z,5.50
2023-01-19T13:21:34.710Z,4.40
2023-01-19T13:24:05.655Z,5.40
2023-01-19T13:26:38.573Z,5.63
2023-01-19T13:29:05.252Z,5.30
2023-01-19T13:31:40.233Z,5.35
2023-01-19T13:34:16.931Z,4.25
2023-01-19T13:36:45.955Z,5.22
2023-01-19T13:39:23.641Z,7.32
2023-01-19T13:41:54.764Z,5.97
2023-01-19T13:44:29.115Z,5.07
2023-01-19T13:46:57.578Z,5.00
2023-01-19T13:49:36.322Z,5.07
2023-01-19T13:52:14.159Z,6.03
2023-01-19T13:54:53.136Z,4.53
2023-01-19T13:57:30.997Z,5.03
2023-01-19T14:00:01.640Z,6.15
2023-01-19T14:02:28.418Z,4.70
2023-01-19T14:04:57.222Z,4.22
2023-01-19T14:07:26.563Z,5.28
2023-01-19T14:10:09.469Z,5.60
2023-01-19T14:12:43.534Z,4.30
2023-01-19T14:15:15.080Z,5.80
2023-01-19T14:17:42.245Z,4.97
2023-01-19T14:20:29.705Z,4.70
2023-01-19T14:22:56.496Z,6.63
2023-01-19T14:25:37.921Z,4.75
2023-01-19T14:28:28.542Z,5.82
2023-01-19T14:30:57.388Z,5.40
2023-01-19T14:33:45.375Z,6.18
2023-01-19T14:36:17.560Z,4.72
2023-01-19T14:38:46.629Z,5.15
2023-01-19T14:41:44.707Z,5.30
2023-01-19T14:44:18.767Z,4.65
2023-01-19T14:46:49.020Z,5.07
2023-01-19T14:49:46.813Z,5.10
2023-01-19T14:52:24.633Z,5.00
2023-01-19T14:54:54.247Z,5.20
2023-01-19T14:57:23.112Z,5.15
2023-01-19T14:59:50.418Z,4.65
2023-01-19T15:02:20.585Z,5.32
2023-01-19T15:04:48.286Z,4.38
2023-01-19T15:07:22.563Z,4.50
2023-01-19T15:09:50.072Z,4.97
2023-01-19T15:12:18.506Z,5.15
2023-01-19T15:14:45.915Z,4.57
2023-01-19T15:17:25.436Z,4.70
2023-01-19T15:19:56.125Z,5.45
2023-01-19T15:22:26.826Z,4.97
2023-01-19T15:24:57.566Z,5.05
2023-01-19T15:27:24.578Z,4.68
2023-01-19T15:29:51.343Z,5.05
2023-01-19T15:32:18.171Z,5.50
2023-01-19T15:34:47.725Z,4.88
2023-01-19T15:37:14.430Z,4.90
2023-01-19T15:39:41.227Z,6.38
2023-01-19T15:42:16.401Z,5.38
2023-01-19T15:44:45.022Z,4.72
2023-01-19T15:47:11.804Z,5.75
2023-01-19T15:49:38.586Z,5.35
2023-01-19T15:52:05.318Z,7.75
2023-01-19T15:54:32.026Z,8.05
2023-01-19T15:56:58.764Z,7.18
2023-01-19T15:59:25.846Z,7.57
2023-01-19T16:01:52.606Z,8.40
2023-01-19T16:04:19.619Z,9.65
2023-01-19T16:06:46.362Z,8.32
2023-01-19T16:09:18.397Z,7.20
2023-01-19T16:11:45.161Z,9.00
2023-01-19T16:14:12.278Z,6.85
2023-01-19T16:16:39.027Z,8.57
2023-01-19T16:19:05.811Z,7.57
2023-01-19T16:21:32.547Z,7.25
2023-01-19T16:23:59.270Z,6.97
2023-01-19T16:26:32.598Z,7.15
2023-01-19T16:29:01.770Z,7.03
2023-01-19T16:31:29.387Z,6.82
2023-01-19T16:33:56.259Z,7.35
2023-01-19T16:36:24.459Z,7.00
2023-01-19T16:38:51.445Z,6.88
2023-01-19T16:41:18.319Z,6.25
2023-01-19T16:43:49.509Z,6.60
2023-01-19T16:46:24.889Z,6.47
2023-01-19T16:48:52.275Z,7.03
2023-01-19T16:51:19.581Z,8.35
2023-01-19T16:53:48.461Z,7.50
2023-01-19T16:56:15.405Z,7.07
2023-01-19T16:58:42.488Z,7.60
2023-01-19T17:01:11.495Z,7.35
2023-01-19T17:03:38.630Z,7.93
2023-01-19T17:06:10.528Z,6.93
2023-01-19T17:08:37.497Z,7.18
2023-01-19T17:11:20.893Z,6.32
2023-01-19T17:13:57.065Z,6.28
2023-01-19T17:16:25.335Z,6.55
2023-01-19T17:18:52.265Z,7.70
2023-01-19T17:21:20.078Z,8.70
2023-01-19T17:23:48.922Z,6.97
2023-01-19T17:26:16.940Z,6.22
2023-01-19T17:28:44.348Z,7.28
2023-01-19T17:31:19.510Z,6.75
2023-01-19T17:33:48.801Z,7.22
2023-01-19T17:36:17.840Z,5.80
2023-01-19T17:38:44.542Z,6.95
2023-01-19T17:41:15.172Z,5.60
2023-01-19T17:43:41.939Z,7.43
2023-01-19T17:46:09.304Z,6.65
2023-01-19T17:48:36.189Z,7.78
2023-01-19T17:51:05.657Z,6.93
2023-01-19T17:53:33.289Z,6.75
2023-01-19T17:56:16.584Z,7.07
2023-01-19T17:58:44.339Z,6.18
2023-01-19T18:01:17.496Z,6.47
2023-01-19T18:03:44.426Z,8.40
2023-01-19T18:06:11.707Z,6.65
2023-01-19T18:08:44.380Z,6.25
2023-01-19T18:11:11.556Z,7.05
2023-01-19T18:13:39.346Z,6.45
2023-01-19T18:16:09.450Z,8.18
2023-01-19T18:18:38.106Z,7.15
2023-01-19T18:21:07.670Z,6.90
2023-01-19T18:23:34.866Z,7.75
2023-01-19T18:26:09.944Z,7.57
2023-01-19T18:28:37.324Z,6.97
2023-01-19T18:31:08.915Z,7.63
2023-01-19T18:33:36.522Z,6.60
2023-01-19T18:36:04.199Z,6.65
2023-01-19T18:38:31.429Z,6.85
2023-01-19T18:41:07.252Z,7.00
2023-01-19T18:43:34.348Z,7.00
2023-01-19T18:46:01.129Z,6.93
2023-01-19T18:48:31.358Z,6.97
2023-01-19T18:51:03.190Z,8.93
2023-01-19T18:53:31.669Z,7.20
2023-01-19T18:56:01.876Z,7.43
2023-01-19T18:58:29.791Z,7.00
2023-01-19T19:01:00.433Z,7.30
2023-01-19T19:03:27.726Z,7.63
2023-01-19T19:05:55.466Z,7.60
2023-01-19T19:08:26.389Z,8.48
2023-01-19T19:10:53.179Z,9.65
2023-01-19T19:13:21.846Z,7.32
2023-01-19T19:15:48.689Z,6.45
2023-01-19T19:18:16.281Z,8.93
2023-01-19T19:20:43.498Z,8.68
2023-01-19T19:23:13.512Z,7.80
2023-01-19T19:25:40.343Z,7.88
2023-01-19T19:28:07.245Z,8.48
2023-01-19T19:30:35.754Z,7.55
2023-01-19T19:33:03.200Z,9.18
2023-01-19T19:35:30.010Z,8.85
2023-01-19T19:37:57.787Z,8.63
2023-01-19T19:40:28.217Z,9.02
2023-01-19T19:42:57.572Z,9.25
2023-01-19T19:45:25.512Z,9.90
2023-01-19T19:47:52.311Z,9.05
2023-01-19T19:50:19.089Z,8.98
2023-01-19T19:52:45.884Z,9.55
2023-01-19T19:55:12.779Z,8.60
2023-01-19T19:57:39.623Z,9.45
2023-01-19T20:00:07.749Z,10.73
2023-01-19T20:02:34.533Z,10.82
2023-01-19T20:05:01.344Z,11.48
2023-01-19T20:07:28.120Z,8.25
2023-01-19T20:09:55.167Z,10.13
2023-01-19T20:12:22.137Z,9.55
2023-01-19T20:14:48.894Z,9.55
2023-01-19T20:17:15.627Z,8.50
2023-01-19T20:19:43.803Z,18.40
2023-01-19T20:22:10.509Z,10.80
2023-01-19T20:24:37.286Z,9.63
2023-01-19T20:27:04.327Z,9.90
2023-01-19T20:29:31.108Z,10.38
2023-01-19T20:31:58.179Z,9.85
2023-01-19T20:34:28.228Z,11.27
2023-01-19T20:36:55.430Z,12.63
2023-01-19T20:39:23.582Z,12.75
2023-01-19T20:41:51.439Z,10.57
2023-01-19T20:44:27.294Z,11.20
2023-01-19T20:46:54.982Z,11.20
2023-01-19T20:49:21.974Z,12.40
2023-01-19T20:51:50.014Z,13.45
2023-01-19T20:54:18.844Z,16.58
2023-01-19T20:56:45.703Z,13.10
2023-01-19T20:59:13.465Z,12.98
2023-01-19T21:01:41.593Z,12.18
2023-01-19T21:04:09.479Z,12.25
2023-01-19T21:06:36.838Z,13.07
2023-01-19T21:09:04.934Z,12.63
2023-01-19T21:11:31.688Z,13.45
2023-01-19T21:13:58.457Z,14.95
2023-01-19T21:16:27.944Z,11.48
2023-01-19T21:18:55.147Z,11.02
2023-01-19T21:21:30.229Z,11.55
2023-01-19T21:24:01.287Z,11.40
2023-01-19T21:26:33.350Z,10.25
2023-01-19T21:29:01.561Z,9.27
2023-01-19T21:31:28.714Z,10.45
2023-01-19T21:33:56.922Z,9.55
2023-01-19T21:36:24.635Z,9.38
2023-01-19T21:38:52.415Z,9.25
2023-01-19T21:41:19.729Z,9.30
2023-01-19T21:43:47.055Z,9.55
2023-01-19T21:46:17.991Z,9.20
2023-01-19T21:48:45.870Z,9.02
2023-01-19T21:51:13.253Z,10.43
2023-01-19T21:53:40.567Z,11.32
2023-01-19T21:56:09.463Z,10.73
2023-01-19T21:58:36.881Z,9.50
2023-01-19T22:01:15.587Z,9.93
2023-01-19T22:03:43.765Z,10.05
2023-01-19T22:06:13.407Z,9.00
2023-01-19T22:08:58.409Z,10.13
2023-01-19T22:11:25.483Z,9.50
2023-01-19T22:13:52.644Z,10.60
2023-01-19T22:16:21.819Z,10.40
2023-01-19T22:18:56.231Z,9.73
2023-01-19T22:21:25.019Z,9.90
2023-01-19T22:23:54.555Z,9.07
2023-01-19T22:26:22.029Z,9.48
2023-01-19T22:28:52.396Z,10.23
2023-01-19T22:31:19.552Z,9.52
2023-01-19T22:33:46.650Z,8.52
2023-01-19T22:36:16.189Z,9.90
2023-01-19T22:38:44.389Z,8.80
2023-01-19T22:41:13.036Z,9.90
2023-01-19T22:43:39.855Z,10.10
2023-01-19T22:46:08.741Z,9.80
2023-01-19T22:48:36.253Z,9.70
2023-01-19T22:51:03.421Z,10.20
2023-01-19T22:53:33.393Z,8.25
2023-01-19T22:56:00.231Z,9.43
2023-01-19T22:58:26.979Z,9.75
2023-01-19T23:00:53.814Z,9.48
2023-01-19T23:03:20.586Z,8.80
2023-01-19T23:05:47.356Z,8.65
2023-01-19T23:08:14.139Z,9.45
2023-01-19T23:10:40.962Z,10.38
2023-01-19T23:13:07.720Z,9.10
2023-01-19T23:15:34.955Z,9.48
2023-01-19T23:18:02.022Z,9.45
2023-01-19T23:20:28.832Z,9.10
2023-01-19T23:22:55.653Z,9.75
2023-01-19T23:25:22.442Z,10.00
2023-01-19T23:27:49.193Z,8.85
2023-01-19T23:30:16.252Z,9.38
2023-01-19T23:32:47.374Z,10.15
2023-01-19T23:35:14.731Z,9.30
2023-01-19T23:37:41.881Z,9.75
2023-01-19T23:43:57.579Z,9.48
2023-01-19T23:46:24.642Z,8.60
2023-01-19T23:48:51.723Z,9.70
2023-01-19T23:51:24.085Z,9.77
2023-01-19T23:53:51.342Z,8.55
2023-01-19T23:56:21.094Z,8.45
2023-01-19T23:58:52.678Z,9.68
